Time;durP1;ratioP1;P1;durP2;ratioP2;P2;SDS_P1;SDS_P2;PMS_P1;PMS_P2;Temp;Humidity;BMP_temperature;BMP_pressure;BME280_temperature;BME280_humidity;BME280_pressure;Samples;Min_cycle;Max_cycle;Signal;HPM_P1;HPM_P2
2019/09/28 00:00:23;;;;;;;8.4;4.4;;;;;;;15.34;100;1001.159;;;;
2019/09/28 00:02:45;;;;;;;7.4;4.7;;;;;;;15.36;100;1001.239;;;;
2019/09/28 00:05:11;;;;;;;7.2;4.6;;;;;;;15.32;100;1001.235;;;;
2019/09/28 00:07:36;;;;;;;6.9;4.5;;;;;;;15.3;100;1001.258;;;;
2019/09/28 00:10:01;;;;;;;6.2;4.5;;;;;;;15.39;100;1001.29;;;;
2019/09/28 00:12:26;;;;;;;6.9;4.6;;;;;;;15.39;100;1001.28;;;;
2019/09/28 00:14:51;;;;;;;7.9;4.7;;;;;;;15.43;100;1001.347;;;;
2019/09/28 00:17:16;;;;;;;6.3;4.4;;;;;;;15.36;100;1001.305;;;;
2019/09/28 00:19:41;;;;;;;6.3;4.6;;;;;;;15.4;100;1001.345;;;;
2019/09/28 00:22:07;;;;;;;7.4;4.4;;;;;;;15.4;100;1001.394;;;;
2019/09/28 00:24:32;;;;;;;7.4;4.9;;;;;;;15.49;100;1001.414;;;;
2019/09/28 00:26:57;;;;;;;8.9;5.1;;;;;;;15.41;100;1001.362;;;;
2019/09/28 00:29:22;;;;;;;7.6;4.8;;;;;;;15.43;100;1001.369;;;;
2019/09/28 00:31:47;;;;;;;8.4;4.9;;;;;;;15.49;100;1001.433;;;;
2019/09/28 00:34:12;;;;;;;6.6;4.7;;;;;;;15.5;100;1001.484;;;;
2019/09/28 00:36:37;;;;;;;6.7;4.5;;;;;;;15.54;100;1001.515;;;;
2019/09/28 00:39:02;;;;;;;6.9;4.5;;;;;;;15.53;100;1001.473;;;;
2019/09/28 00:41:27;;;;;;;8.4;5;;;;;;;15.51;100;1001.5;;;;
2019/09/28 00:43:52;;;;;;;6.1;4.5;;;;;;;15.48;100;1001.519;;;;
2019/09/28 00:46:17;;;;;;;8.3;4.6;;;;;;;15.49;100;1001.542;;;;
2019/09/28 00:49:07;;;;;;;7.2;4.9;;;;;;;15.47;100;1001.525;;;;
2019/09/28 00:51:47;;;;;;;6.9;4.5;;;;;;;15.53;100;1001.568;;;;
2019/09/28 00:54:12;;;;;;;7.8;4.2;;;;;;;15.52;100;1001.569;;;;
2019/09/28 00:56:37;;;;;;;6.7;4.5;;;;;;;15.51;100;1001.524;;;;
2019/09/28 00:59:02;;;;;;;6.3;4;;;;;;;15.5;100;1001.563;;;;
2019/09/28 01:01:27;;;;;;;6.1;4.2;;;;;;;15.45;100;1001.592;;;;
2019/09/28 01:03:52;;;;;;;8.5;4;;;;;;;15.44;100;1001.551;;;;
2019/09/28 01:06:17;;;;;;;6.5;4;;;;;;;15.46;100;1001.614;;;;
2019/09/28 01:08:42;;;;;;;6.4;3.9;;;;;;;15.49;100;1001.625;;;;
2019/09/28 01:11:07;;;;;;;5.3;3.7;;;;;;;15.48;100;1001.584;;;;
2019/09/28 01:13:33;;;;;;;5.2;3.6;;;;;;;15.46;100;1001.63;;;;
2019/09/28 01:15:58;;;;;;;7;3.9;;;;;;;15.5;100;1001.589;;;;
2019/09/28 01:18:23;;;;;;;4.2;3.4;;;;;;;15.58;99.88965;1001.624;;;;
2019/09/28 01:20:48;;;;;;;5.3;3.8;;;;;;;15.53;100;1001.624;;;;
2019/09/28 01:23:13;;;;;;;4.5;3.3;;;;;;;15.57;99.91016;1001.663;;;;
2019/09/28 01:25:38;;;;;;;8.1;4;;;;;;;15.5;100;1001.647;;;;
2019/09/28 01:28:03;;;;;;;5.2;3.5;;;;;;;15.55;99.89453;1001.698;;;;
2019/09/28 01:30:28;;;;;;;5.7;3.5;;;;;;;15.45;100;1001.682;;;;
2019/09/28 01:32:53;;;;;;;5.9;3.5;;;;;;;15.5;100;1001.685;;;;
2019/09/28 01:35:19;;;;;;;8.4;3.8;;;;;;;15.47;100;1001.678;;;;
2019/09/28 01:37:43;;;;;;;5.8;3.5;;;;;;;15.51;99.87305;1001.682;;;;
2019/09/28 01:40:09;;;;;;;6.4;3.4;;;;;;;15.54;99.84668;1001.656;;;;
2019/09/28 01:42:34;;;;;;;6.1;3.6;;;;;;;15.49;99.73145;1001.68;;;;
2019/09/28 01:44:59;;;;;;;6.7;3.3;;;;;;;15.48;99.58887;1001.687;;;;
2019/09/28 01:47:24;;;;;;;6.7;2.7;;;;;;;15.52;98.61426;1001.663;;;;
2019/09/28 01:49:50;;;;;;;6.5;3.1;;;;;;;15.6;97.7627;1001.664;;;;
2019/09/28 01:52:15;;;;;;;5.4;2.3;;;;;;;15.53;95.04785;1001.653;;;;
2019/09/28 01:54:40;;;;;;;4.9;2.1;;;;;;;15.46;94.69629;1001.669;;;;
2019/09/28 01:57:05;;;;;;;3.9;1.9;;;;;;;15.41;93.40332;1001.683;;;;
2019/09/28 01:59:30;;;;;;;4.9;1.8;;;;;;;15.32;93.05859;1001.755;;;;
2019/09/28 02:01:55;;;;;;;4.1;1.7;;;;;;;15.25;93.1123;1001.738;;;;
2019/09/28 02:04:20;;;;;;;5.6;2.1;;;;;;;15.16;93.56738;1001.748;;;;
2019/09/28 02:06:45;;;;;;;3.7;2.1;;;;;;;15.15;93.55469;1001.714;;;;
2019/09/28 02:09:10;;;;;;;4.2;1.8;;;;;;;15.14;93.18262;1001.812;;;;
2019/09/28 02:11:35;;;;;;;6.7;2.1;;;;;;;15.07;93.7334;1001.849;;;;
2019/09/28 02:14:00;;;;;;;4.9;1.9;;;;;;;15.12;93.44434;1001.876;;;;
2019/09/28 02:16:26;;;;;;;6.6;2.3;;;;;;;15.08;93.70117;1001.93;;;;
2019/09/28 02:18:51;;;;;;;3.8;2.1;;;;;;;15.15;93.28809;1001.959;;;;
2019/09/28 02:21:16;;;;;;;5;2.1;;;;;;;15.21;93.12598;1002.04;;;;
2019/09/28 02:23:41;;;;;;;3.9;1.9;;;;;;;15.19;93.74902;1002.04;;;;
2019/09/28 02:26:06;;;;;;;6.3;2.2;;;;;;;15.16;94.10156;1002.042;;;;
2019/09/28 02:28:31;;;;;;;5.1;2.1;;;;;;;15.16;94.48145;1002.04;;;;
2019/09/28 02:30:57;;;;;;;6.4;2.3;;;;;;;15.11;95.23535;1002.099;;;;
2019/09/28 02:33:22;;;;;;;4.5;2.3;;;;;;;15.08;95.8291;1002.094;;;;
2019/09/28 02:35:47;;;;;;;6.2;2.3;;;;;;;15.11;96.03613;1002.171;;;;
2019/09/28 02:38:12;;;;;;;5;2.4;;;;;;;15.16;96.21777;1002.159;;;;
2019/09/28 02:40:37;;;;;;;6.3;2.4;;;;;;;15.26;95.82227;1002.14;;;;
2019/09/28 02:43:02;;;;;;;6;2.6;;;;;;;15.21;96.20605;1002.18;;;;
2019/09/28 02:45:27;;;;;;;5.1;2.2;;;;;;;15.16;96.42773;1002.193;;;;
2019/09/28 02:47:53;;;;;;;5.7;2.4;;;;;;;15.22;96.0459;1002.193;;;;
2019/09/28 02:50:18;;;;;;;7.1;2.4;;;;;;;15.26;95.80176;1002.162;;;;
2019/09/28 02:52:43;;;;;;;7;2.5;;;;;;;15.23;95.41016;1002.175;;;;
2019/09/28 02:55:08;;;;;;;4.1;2.3;;;;;;;15.27;95.23438;1002.241;;;;
2019/09/28 02:57:33;;;;;;;4.6;2.2;;;;;;;15.12;96.12891;1002.223;;;;
2019/09/28 02:59:58;;;;;;;6.6;2.4;;;;;;;15.19;95.50781;1002.215;;;;
2019/09/28 03:02:23;;;;;;;6.7;2.5;;;;;;;15.22;95.59473;1002.244;;;;
2019/09/28 03:04:49;;;;;;;4.4;2.2;;;;;;;15.14;95.87988;1002.322;;;;
2019/09/28 03:07:14;;;;;;;6.4;2.2;;;;;;;15.19;95.71582;1002.412;;;;
2019/09/28 03:09:39;;;;;;;4.2;2;;;;;;;15.18;95.49219;1002.35;;;;
2019/09/28 03:12:04;;;;;;;4.9;2.4;;;;;;;15.17;95.36523;1002.438;;;;
2019/09/28 03:14:29;;;;;;;6;2.3;;;;;;;15.17;95.67773;1002.421;;;;
2019/09/28 03:16:54;;;;;;;6.3;2.3;;;;;;;15.06;96.42676;1002.381;;;;
2019/09/28 03:19:19;;;;;;;4.3;2.3;;;;;;;15.11;96.7627;1002.404;;;;
2019/09/28 03:21:44;;;;;;;5.8;2.5;;;;;;;15.09;96.88574;1002.381;;;;
2019/09/28 03:24:09;;;;;;;6.8;2.5;;;;;;;15.02;97.27539;1002.385;;;;
2019/09/28 03:26:35;;;;;;;5.7;2.4;;;;;;;15.11;97.42188;1002.408;;;;
2019/09/28 03:29:00;;;;;;;6.3;2.4;;;;;;;15.12;97.36621;1002.432;;;;
2019/09/28 03:31:25;;;;;;;5.7;2.2;;;;;;;15.14;97.16406;1002.418;;;;
2019/09/28 03:33:50;;;;;;;4.8;2.1;;;;;;;15.08;97.82129;1002.379;;;;
2019/09/28 03:36:15;;;;;;;7.1;2.2;;;;;;;14.99;98.00879;1002.355;;;;
2019/09/28 03:38:40;;;;;;;5.9;2.4;;;;;;;14.92;98.2334;1002.409;;;;
2019/09/28 03:41:05;;;;;;;6.6;2.4;;;;;;;14.89;98.37988;1002.399;;;;
2019/09/28 03:43:30;;;;;;;6.1;2.2;;;;;;;14.83;98.67773;1002.427;;;;
2019/09/28 03:45:56;;;;;;;5.2;2.3;;;;;;;14.85;98.74023;1002.402;;;;
2019/09/28 03:48:21;;;;;;;3.4;1.9;;;;;;;14.88;97.85742;1002.433;;;;
2019/09/28 03:50:46;;;;;;;3.8;2;;;;;;;14.99;97.1416;1002.422;;;;
2019/09/28 03:53:11;;;;;;;6.6;1.9;;;;;;;15.02;96.13965;1002.401;;;;
2019/09/28 03:55:36;;;;;;;5.1;2.2;;;;;;;14.98;96.11035;1002.454;;;;
2019/09/28 03:58:01;;;;;;;5.2;2;;;;;;;15.01;95.72266;1002.461;;;;
2019/09/28 04:02:28;;;;;;;6.4;1.9;;;;;;;15.02;95.05176;1002.468;;;;
2019/09/28 04:04:53;;;;;;;4.2;1.7;;;;;;;15;95.18945;1002.498;;;;
2019/09/28 04:07:18;;;;;;;4.4;1.7;;;;;;;15.03;95.1123;1002.489;;;;
2019/09/28 04:09:43;;;;;;;5.1;1.9;;;;;;;15.08;94.68652;1002.532;;;;
2019/09/28 04:12:08;;;;;;;5.8;1.9;;;;;;;15.09;94.3877;1002.597;;;;
2019/09/28 04:14:33;;;;;;;4.2;1.8;;;;;;;15.01;94.9248;1002.561;;;;
2019/09/28 04:16:59;;;;;;;3.8;1.8;;;;;;;15;94.88867;1002.58;;;;
2019/09/28 04:19:24;;;;;;;5.9;1.9;;;;;;;15.03;95.03125;1002.527;;;;
2019/09/28 04:21:49;;;;;;;4.2;1.8;;;;;;;15.07;94.85547;1002.559;;;;
2019/09/28 04:24:14;;;;;;;5.3;1.7;;;;;;;15;94.65527;1002.589;;;;
2019/09/28 04:26:39;;;;;;;5.7;2.1;;;;;;;14.94;95.07129;1002.546;;;;
2019/09/28 04:29:04;;;;;;;3.7;1.7;;;;;;;14.92;95.29883;1002.509;;;;
2019/09/28 04:31:29;;;;;;;4;1.9;;;;;;;14.89;95.66113;1002.489;;;;
2019/09/28 04:33:54;;;;;;;4.4;2;;;;;;;14.86;95.94434;1002.443;;;;
2019/09/28 04:36:19;;;;;;;4.7;1.9;;;;;;;14.91;96.06934;1002.5;;;;
2019/09/28 04:38:45;;;;;;;3.9;1.8;;;;;;;14.82;96.58301;1002.555;;;;
2019/09/28 04:41:10;;;;;;;6.4;2;;;;;;;14.87;96.69727;1002.53;;;;
2019/09/28 04:43:35;;;;;;;4;1.8;;;;;;;14.89;96.57422;1002.481;;;;
2019/09/28 04:46:00;;;;;;;4.6;2.1;;;;;;;14.8;97.04004;1002.431;;;;
2019/09/28 04:48:25;;;;;;;5;2;;;;;;;14.79;97.12988;1002.396;;;;
2019/09/28 04:50:50;;;;;;;5.3;2;;;;;;;14.77;97.02246;1002.384;;;;
2019/09/28 04:53:15;;;;;;;4.4;1.9;;;;;;;14.78;96.78125;1002.341;;;;
2019/09/28 04:55:40;;;;;;;5.3;2.3;;;;;;;14.75;96.66016;1002.436;;;;
2019/09/28 04:58:05;;;;;;;4.5;2;;;;;;;14.74;96.71387;1002.416;;;;
2019/09/28 05:00:30;;;;;;;6.9;2.2;;;;;;;14.63;97.07324;1002.392;;;;
2019/09/28 05:02:55;;;;;;;5.7;2.1;;;;;;;14.6;97.14648;1002.37;;;;
2019/09/28 05:05:20;;;;;;;6;2.2;;;;;;;14.65;96.52246;1002.398;;;;
2019/09/28 05:07:45;;;;;;;6.5;2.2;;;;;;;14.6;96.55664;1002.431;;;;
2019/09/28 05:10:11;;;;;;;7.2;2.1;;;;;;;14.57;95.9502;1002.423;;;;
2019/09/28 05:12:36;;;;;;;4.8;2.5;;;;;;;14.53;96.25195;1002.426;;;;
2019/09/28 05:15:01;;;;;;;4.6;1.8;;;;;;;14.53;95.91699;1002.42;;;;
2019/09/28 05:17:26;;;;;;;7.5;3.4;;;;;;;14.6;95.12598;1002.473;;;;
2019/09/28 05:19:51;;;;;;;5.4;2.2;;;;;;;14.55;95.00977;1002.48;;;;
2019/09/28 05:22:16;;;;;;;6.4;2.2;;;;;;;14.53;94.64844;1002.504;;;;
2019/09/28 05:24:41;;;;;;;6.9;2.5;;;;;;;14.5;94.75586;1002.525;;;;
2019/09/28 05:27:06;;;;;;;6.7;2.4;;;;;;;14.47;94.75977;1002.55;;;;
2019/09/28 05:29:32;;;;;;;5.5;2.1;;;;;;;14.57;94.04297;1002.606;;;;
2019/09/28 05:31:57;;;;;;;8.7;2.1;;;;;;;14.49;94.02441;1002.611;;;;
2019/09/28 05:34:22;;;;;;;5.4;2.1;;;;;;;14.63;93.03809;1002.725;;;;
2019/09/28 05:36:47;;;;;;;4.3;2;;;;;;;14.65;92.88184;1002.701;;;;
2019/09/28 05:39:12;;;;;;;6;2.1;;;;;;;14.62;92.86328;1002.622;;;;
2019/09/28 05:41:37;;;;;;;5.4;2.1;;;;;;;14.64;92.64746;1002.663;;;;
2019/09/28 05:44:02;;;;;;;7.1;2.1;;;;;;;14.65;92.62598;1002.704;;;;
2019/09/28 05:46:27;;;;;;;6.4;2;;;;;;;14.74;92.4043;1002.695;;;;
2019/09/28 05:48:52;;;;;;;6.6;2;;;;;;;14.74;92.0459;1002.779;;;;
2019/09/28 05:51:17;;;;;;;7.3;2.2;;;;;;;14.81;91.62207;1002.818;;;;
2019/09/28 05:53:43;;;;;;;4.9;1.6;;;;;;;14.86;91.2959;1002.874;;;;
2019/09/28 05:56:08;;;;;;;5.2;1.8;;;;;;;14.86;91.41113;1002.941;;;;
2019/09/28 05:58:33;;;;;;;3.8;1.6;;;;;;;14.95;90.77148;1002.962;;;;
2019/09/28 06:00:58;;;;;;;5.8;1.8;;;;;;;14.85;91.46582;1002.967;;;;
2019/09/28 06:03:23;;;;;;;5.7;2;;;;;;;14.74;92.42773;1002.972;;;;
2019/09/28 06:05:48;;;;;;;6.1;2.1;;;;;;;14.68;93.13086;1003.114;;;;
2019/09/28 06:08:13;;;;;;;5.6;1.9;;;;;;;14.59;94.12793;1003.107;;;;
2019/09/28 06:10:39;;;;;;;8;2.2;;;;;;;14.55;94.8252;1003.076;;;;
2019/09/28 06:13:04;;;;;;;6.1;2.3;;;;;;;14.57;94.96777;1003.096;;;;
2019/09/28 06:15:29;;;;;;;7.1;2;;;;;;;14.54;95.34277;1003.09;;;;
2019/09/28 06:17:54;;;;;;;6.1;2.3;;;;;;;14.63;95.1084;1003.185;;;;
2019/09/28 06:20:19;;;;;;;8.1;2.2;;;;;;;14.57;95.5459;1003.195;;;;
2019/09/28 06:22:44;;;;;;;8.4;1.9;;;;;;;14.61;95.3457;1003.216;;;;
2019/09/28 06:25:09;;;;;;;6.5;2.1;;;;;;;14.53;95.46875;1003.282;;;;
2019/09/28 06:27:34;;;;;;;6.6;1.9;;;;;;;14.6;95.06641;1003.25;;;;
2019/09/28 06:29:59;;;;;;;5;2;;;;;;;14.57;95.04883;1003.305;;;;
2019/09/28 06:32:24;;;;;;;5;1.9;;;;;;;14.66;94.43262;1003.382;;;;
2019/09/28 06:34:49;;;;;;;5.9;2;;;;;;;14.65;94.9043;1003.372;;;;
2019/09/28 06:37:14;;;;;;;6.6;2.1;;;;;;;14.62;95.16406;1003.337;;;;
2019/09/28 06:39:40;;;;;;;5.9;2;;;;;;;14.73;94.30957;1003.369;;;;
2019/09/28 06:42:05;;;;;;;4.6;1.8;;;;;;;14.77;94.41016;1003.383;;;;
2019/09/28 06:44:30;;;;;;;4.9;1.8;;;;;;;14.74;94.55371;1003.425;;;;
2019/09/28 06:46:55;;;;;;;5.6;1.9;;;;;;;14.91;93.38867;1003.361;;;;
2019/09/28 06:49:20;;;;;;;2.8;1.6;;;;;;;14.93;93.24219;1003.343;;;;
2019/09/28 06:51:45;;;;;;;4.6;1.9;;;;;;;14.89;93.56738;1003.421;;;;
2019/09/28 06:54:10;;;;;;;3.7;1.4;;;;;;;15.2;92.26758;1003.407;;;;
2019/09/28 06:56:35;;;;;;;5.2;1.6;;;;;;;15.39;91.16406;1003.422;;;;
2019/09/28 06:59:00;;;;;;;5.8;1.7;;;;;;;15.94;89.22656;1003.434;;;;
2019/09/28 07:01:25;;;;;;;3.1;1.3;;;;;;;16.13;88.18457;1003.438;;;;
2019/09/28 07:03:50;;;;;;;4.5;1.5;;;;;;;16.26;87.20313;1003.441;;;;
2019/09/28 07:06:15;;;;;;;6.2;1.8;;;;;;;15.96;88.07129;1003.443;;;;
2019/09/28 07:08:41;;;;;;;5.5;1.7;;;;;;;15.79;89.2998;1003.45;;;;
2019/09/28 07:11:06;;;;;;;4.6;1.7;;;;;;;15.69;90.11523;1003.492;;;;
2019/09/28 07:13:31;;;;;;;4;1.5;;;;;;;15.61;90.69922;1003.547;;;;
2019/09/28 07:15:56;;;;;;;3.6;1.6;;;;;;;15.88;89.40137;1003.54;;;;
2019/09/28 07:18:21;;;;;;;5.3;1.7;;;;;;;15.85;89.8916;1003.516;;;;
2019/09/28 07:20:46;;;;;;;4.9;2.1;;;;;;;15.48;91.11328;1003.513;;;;
2019/09/28 07:23:12;;;;;;;4.3;1.7;;;;;;;15.69;90.69434;1003.502;;;;
2019/09/28 07:25:37;;;;;;;2.9;1.5;;;;;;;15.65;90.65234;1003.531;;;;
2019/09/28 07:28:02;;;;;;;4.5;1.7;;;;;;;15.83;90.40039;1003.515;;;;
2019/09/28 07:30:27;;;;;;;4.9;1.6;;;;;;;15.9;89.85449;1003.487;;;;
2019/09/28 07:32:52;;;;;;;4.9;1.6;;;;;;;16;89.36719;1003.539;;;;
2019/09/28 07:35:18;;;;;;;5.7;1.8;;;;;;;16.04;89.2002;1003.58;;;;
2019/09/28 07:37:43;;;;;;;4.2;1.6;;;;;;;16.08;88.41895;1003.612;;;;
2019/09/28 07:40:08;;;;;;;4.8;1.6;;;;;;;16.31;87.37598;1003.566;;;;
2019/09/28 07:42:33;;;;;;;6.2;1.8;;;;;;;16.15;87.71484;1003.532;;;;
2019/09/28 07:44:58;;;;;;;5;1.9;;;;;;;16.26;88.30664;1003.563;;;;
2019/09/28 07:47:23;;;;;;;5.4;1.9;;;;;;;16.98;84.65137;1003.544;;;;
2019/09/28 07:49:48;;;;;;;7.2;1.7;;;;;;;17.76;80.91504;1003.588;;;;
2019/09/28 07:52:13;;;;;;;5.4;1.7;;;;;;;18.28;78.63379;1003.602;;;;
2019/09/28 07:54:38;;;;;;;5;1.7;;;;;;;19.4;73.64648;1003.553;;;;
2019/09/28 07:57:03;;;;;;;5.2;1.5;;;;;;;20.07;70.66992;1003.541;;;;
2019/09/28 07:59:28;;;;;;;4;1.6;;;;;;;20.56;68.65137;1003.559;;;;
2019/09/28 08:01:53;;;;;;;6;1.4;;;;;;;21.21;65.34961;1003.529;;;;
2019/09/28 08:04:19;;;;;;;4.3;1.5;;;;;;;20.56;67.22168;1003.549;;;;
2019/09/28 08:06:44;;;;;;;4.1;1.3;;;;;;;20.24;68.88281;1003.603;;;;
2019/09/28 08:09:10;;;;;;;3.7;1.2;;;;;;;19.42;70.8916;1003.629;;;;
2019/09/28 08:11:34;;;;;;;4.4;1.4;;;;;;;18.92;72.36426;1003.645;;;;
2019/09/28 08:13:59;;;;;;;5.2;1.5;;;;;;;18.72;73.08984;1003.65;;;;
2019/09/28 08:16:24;;;;;;;4.6;1.5;;;;;;;18.51;74.06836;1003.735;;;;
2019/09/28 08:18:49;;;;;;;4;1.2;;;;;;;18.48;74.2041;1003.731;;;;
2019/09/28 08:21:14;;;;;;;3.7;1.3;;;;;;;18.02;75.97852;1003.717;;;;
2019/09/28 08:23:40;;;;;;;4.5;1.5;;;;;;;18.03;75.8877;1003.717;;;;
2019/09/28 08:26:05;;;;;;;4;1.4;;;;;;;18.2;75.2168;1003.78;;;;
2019/09/28 08:28:30;;;;;;;5.1;1.7;;;;;;;17.69;77.77246;1003.747;;;;
2019/09/28 08:30:55;;;;;;;4.8;1.6;;;;;;;17.39;78.38086;1003.756;;;;
2019/09/28 08:33:21;;;;;;;5.3;2;;;;;;;17.47;77.9209;1003.735;;;;
2019/09/28 08:35:46;;;;;;;4.3;1.5;;;;;;;17.55;78.45508;1003.722;;;;
2019/09/28 08:38:11;;;;;;;5.7;1.8;;;;;;;17.51;78.29785;1003.8;;;;
2019/09/28 08:40:36;;;;;;;4.3;1.5;;;;;;;17.92;76.91602;1003.792;;;;
2019/09/28 08:43:01;;;;;;;4.8;1.6;;;;;;;18.32;75.00586;1003.776;;;;
2019/09/28 08:45:26;;;;;;;4.9;1.5;;;;;;;18.11;75.63281;1003.742;;;;
2019/09/28 08:47:52;;;;;;;3.9;1.3;;;;;;;18.43;73.08789;1003.821;;;;
2019/09/28 08:50:17;;;;;;;5.6;1.4;;;;;;;18.42;73.13281;1003.774;;;;
2019/09/28 08:52:42;;;;;;;4.5;1.5;;;;;;;18.29;74.32324;1003.816;;;;
2019/09/28 08:55:07;;;;;;;4.1;1.5;;;;;;;18.67;73.10449;1003.889;;;;
2019/09/28 08:57:33;;;;;;;4;1.4;;;;;;;18.37;73.39453;1003.914;;;;
2019/09/28 08:59:57;;;;;;;4;1.3;;;;;;;18.83;71.96289;1003.959;;;;
2019/09/28 09:02:23;;;;;;;6.4;1.5;;;;;;;18.77;71.39453;1003.939;;;;
2019/09/28 09:04:48;;;;;;;6.4;1.5;;;;;;;18.61;71.35645;1003.96;;;;
2019/09/28 09:07:13;;;;;;;6.3;1.8;;;;;;;18.41;71.94238;1003.977;;;;
2019/09/28 09:09:38;;;;;;;4.4;1.5;;;;;;;18.37;72.00586;1003.937;;;;
2019/09/28 09:12:03;;;;;;;4.9;1.5;;;;;;;18.37;71.85449;1003.908;;;;
2019/09/28 09:14:28;;;;;;;5.5;1.6;;;;;;;18.5;71.98047;1003.915;;;;
2019/09/28 09:16:53;;;;;;;5.7;1.5;;;;;;;18.46;71.6709;1003.915;;;;
2019/09/28 09:19:18;;;;;;;4.4;1.5;;;;;;;18.04;73.14063;1003.899;;;;
2019/09/28 09:21:43;;;;;;;4.1;1.4;;;;;;;18.28;72.03613;1003.968;;;;
2019/09/28 09:24:09;;;;;;;4.8;1.5;;;;;;;18.03;72.70898;1003.984;;;;
2019/09/28 09:26:33;;;;;;;5.1;1.7;;;;;;;17.98;72.46582;1003.925;;;;
2019/09/28 09:28:59;;;;;;;7;1.5;;;;;;;18.01;72.07715;1004.005;;;;
2019/09/28 09:31:24;;;;;;;7;1.4;;;;;;;18.06;71.65137;1003.945;;;;
2019/09/28 09:33:49;;;;;;;4.8;1.5;;;;;;;18.46;71.16992;1003.982;;;;
2019/09/28 09:36:14;;;;;;;4.1;1.3;;;;;;;18.44;71.01563;1004.041;;;;
2019/09/28 09:38:39;;;;;;;4;1.3;;;;;;;18.67;70.01367;1004.123;;;;
2019/09/28 09:41:04;;;;;;;3.8;1.3;;;;;;;18.26;71.41797;1004.107;;;;
2019/09/28 09:43:29;;;;;;;4.7;1.4;;;;;;;18.05;71.26563;1003.989;;;;
2019/09/28 09:45:54;;;;;;;4.8;1.4;;;;;;;18.13;71.10449;1004.01;;;;
2019/09/28 09:48:19;;;;;;;2.8;1.2;;;;;;;18.09;71.68066;1003.945;;;;
2019/09/28 09:50:45;;;;;;;3.8;1.6;;;;;;;18.11;71.28809;1003.967;;;;
2019/09/28 09:53:10;;;;;;;4.2;1.5;;;;;;;18.06;71.38574;1003.926;;;;
2019/09/28 09:55:35;;;;;;;6.7;1.5;;;;;;;18.17;71.35645;1003.933;;;;
2019/09/28 09:58:00;;;;;;;4.6;1.5;;;;;;;18.18;71.00684;1004.074;;;;
2019/09/28 10:00:25;;;;;;;4.2;1.5;;;;;;;18.19;70.98633;1004.017;;;;
2019/09/28 10:02:50;;;;;;;3.5;1.2;;;;;;;18.2;69.64844;1004.07;;;;
2019/09/28 10:05:18;;;;;;;6.2;1.3;;;;;;;18.23;69.71191;1004.079;;;;
2019/09/28 10:07:40;;;;;;;5.8;1.5;;;;;;;18.49;69.35547;1004.087;;;;
2019/09/28 10:10:05;;;;;;;5.2;1.5;;;;;;;18.54;69.43262;1004.105;;;;
2019/09/28 10:12:30;;;;;;;2;1.2;;;;;;;18.88;68.9502;1003.979;;;;
2019/09/28 10:14:56;;;;;;;4.8;1.6;;;;;;;18.78;68.29297;1003.901;;;;
2019/09/28 10:17:21;;;;;;;5;1.7;;;;;;;18.66;68.83398;1003.909;;;;
2019/09/28 10:19:46;;;;;;;4.3;1.4;;;;;;;18.86;68.40039;1003.807;;;;
2019/09/28 10:22:11;;;;;;;4.5;1.3;;;;;;;18.97;68.01855;1003.77;;;;
2019/09/28 10:24:37;;;;;;;4.4;1.6;;;;;;;19.31;66.27246;1003.674;;;;
2019/09/28 10:27:02;;;;;;;6.5;1.6;;;;;;;19.01;67.68652;1003.759;;;;
2019/09/28 10:29:27;;;;;;;4.5;1.5;;;;;;;18.83;68.16113;1004.021;;;;
2019/09/28 10:31:52;;;;;;;3.7;1.2;;;;;;;19.01;68.43359;1004.027;;;;
2019/09/28 10:34:17;;;;;;;3.3;1.2;;;;;;;18.84;70.32129;1004.128;;;;
2019/09/28 10:36:42;;;;;;;2.6;1.3;;;;;;;18.32;69.94629;1004.076;;;;
2019/09/28 10:39:07;;;;;;;3.3;1.3;;;;;;;18.09;69.64258;1003.921;;;;
2019/09/28 10:41:32;;;;;;;5;1.5;;;;;;;17.91;70.68555;1004.032;;;;
2019/09/28 10:43:58;;;;;;;4;1.6;;;;;;;18.02;71.04004;1004.172;;;;
2019/09/28 10:46:23;;;;;;;4.1;1.4;;;;;;;18.31;70.30469;1004.155;;;;
2019/09/28 10:48:48;;;;;;;4.3;1.5;;;;;;;18.64;70.28809;1004.219;;;;
2019/09/28 10:51:13;;;;;;;3.7;1.4;;;;;;;19.19;71.41602;1004.188;;;;
2019/09/28 10:53:38;;;;;;;4.2;1.5;;;;;;;19.32;70.94727;1004.251;;;;
2019/09/28 10:56:03;;;;;;;2.8;1.4;;;;;;;18.99;72.58594;1004.32;;;;
2019/09/28 10:58:29;;;;;;;3.1;1.3;;;;;;;18.85;73.89258;1004.276;;;;
2019/09/28 11:00:53;;;;;;;3;1.4;;;;;;;18.55;75.69727;1004.276;;;;
2019/09/28 11:03:18;;;;;;;4.1;1.1;;;;;;;18.53;75.07617;1004.207;;;;
2019/09/28 11:05:43;;;;;;;3.1;1.6;;;;;;;17.9;76.28418;1004.203;;;;
2019/09/28 11:08:08;;;;;;;2.6;1.2;;;;;;;17.51;73.85352;1004.146;;;;
2019/09/28 11:10:33;;;;;;;2.2;1;;;;;;;17.6;72.41602;1004.137;;;;
2019/09/28 11:12:58;;;;;;;3.5;1.2;;;;;;;17.91;72.16211;1004.185;;;;
2019/09/28 11:15:24;;;;;;;4.6;1;;;;;;;17.6;74.48535;1004.22;;;;
2019/09/28 11:17:49;;;;;;;2.8;1;;;;;;;17.18;77.37988;1004.238;;;;
2019/09/28 11:20:14;;;;;;;4.9;1.3;;;;;;;17.04;79.06348;1004.235;;;;
2019/09/28 11:22:39;;;;;;;4.6;1.2;;;;;;;16.89;79.40625;1004.156;;;;
2019/09/28 11:25:04;;;;;;;3.4;1.2;;;;;;;17.04;78.9248;1004.185;;;;
2019/09/28 11:27:29;;;;;;;2.8;1.3;;;;;;;17.41;79.33789;1004.2;;;;
2019/09/28 11:29:54;;;;;;;2.7;1.1;;;;;;;17.7;75.36328;1004.179;;;;
2019/09/28 11:32:19;;;;;;;2.8;1.1;;;;;;;18;73.15527;1004.096;;;;
2019/09/28 11:34:44;;;;;;;2.9;0.9;;;;;;;18.08;72.26172;1004.059;;;;
2019/09/28 11:37:10;;;;;;;3.3;1;;;;;;;17.97;71.8584;1004.009;;;;
2019/09/28 11:39:35;;;;;;;2.6;1;;;;;;;18.34;72.02539;1004.022;;;;
2019/09/28 11:42:00;;;;;;;2.9;1.1;;;;;;;18.33;71.16016;1003.965;;;;
2019/09/28 11:44:25;;;;;;;2.2;0.9;;;;;;;18.71;70.24219;1004.001;;;;
2019/09/28 11:47:00;;;;;;;3.6;1.2;;;;;;;18.53;71.24023;1003.921;;;;
2019/09/28 11:49:15;;;;;;;4.6;1.2;;;;;;;18.38;72.14746;1003.866;;;;
2019/09/28 11:51:40;;;;;;;5;1.2;;;;;;;18.25;73.11719;1003.88;;;;
2019/09/28 11:54:05;;;;;;;2.2;1.1;;;;;;;18.36;71.43164;1003.883;;;;
2019/09/28 11:56:30;;;;;;;3.9;1.5;;;;;;;18.53;71.25;1003.963;;;;
2019/09/28 11:58:56;;;;;;;4.5;1.3;;;;;;;18.88;70.62988;1003.913;;;;
2019/09/28 12:01:37;;;;;;;4.2;1.1;;;;;;;18.93;69.68066;1003.988;;;;
2019/09/28 12:04:02;;;;;;;3.4;1.3;;;;;;;18.88;69.25488;1004.142;;;;
2019/09/28 12:06:28;;;;;;;3.3;1.1;;;;;;;17.96;72.77832;1004.069;;;;
2019/09/28 12:08:53;;;;;;;3.8;1.2;;;;;;;17.92;74.67871;1004.127;;;;
2019/09/28 12:11:18;;;;;;;4.2;1.4;;;;;;;17.62;75.0127;1004.058;;;;
2019/09/28 12:13:43;;;;;;;2;0.9;;;;;;;17.79;74.32031;1004.035;;;;
2019/09/28 12:16:08;;;;;;;2.7;1.1;;;;;;;17.83;73.52246;1004.009;;;;
2019/09/28 12:18:33;;;;;;;2.6;1.1;;;;;;;17.62;73.80176;1004.02;;;;
2019/09/28 12:20:58;;;;;;;1.9;1;;;;;;;17.76;72.61621;1003.989;;;;
2019/09/28 12:23:23;;;;;;;2.6;1.1;;;;;;;17.72;72.93555;1004.01;;;;
2019/09/28 12:25:48;;;;;;;2.9;1;;;;;;;17.69;72.10352;1004.049;;;;
2019/09/28 12:28:14;;;;;;;2.1;1;;;;;;;17.59;71.68066;1003.9;;;;
2019/09/28 12:30:39;;;;;;;1.7;0.8;;;;;;;17.48;71.74414;1003.919;;;;
2019/09/28 12:33:04;;;;;;;1.6;0.9;;;;;;;17.53;71.53223;1003.856;;;;
2019/09/28 12:35:29;;;;;;;2.7;0.8;;;;;;;17.8;70.5752;1003.811;;;;
2019/09/28 12:37:54;;;;;;;3.2;0.9;;;;;;;17.57;71.31543;1003.799;;;;
2019/09/28 12:40:19;;;;;;;3.8;0.9;;;;;;;17.89;70.35645;1003.816;;;;
2019/09/28 12:42:45;;;;;;;2.4;0.9;;;;;;;17.94;70.39844;1003.888;;;;
2019/09/28 12:45:09;;;;;;;2.3;1;;;;;;;17.8;70.30664;1003.842;;;;
2019/09/28 12:47:34;;;;;;;1.7;0.8;;;;;;;17.99;69.87012;1003.797;;;;
2019/09/28 12:49:59;;;;;;;4.2;0.9;;;;;;;18.52;68.42871;1003.832;;;;
2019/09/28 12:52:25;;;;;;;2.5;1.2;;;;;;;18.42;68.41309;1003.773;;;;
2019/09/28 12:54:50;;;;;;;1.8;0.8;;;;;;;18.6;68.03125;1003.761;;;;
2019/09/28 12:57:15;;;;;;;2.6;1.1;;;;;;;18.65;68.08496;1003.792;;;;
2019/09/28 12:59:40;;;;;;;3.2;1.1;;;;;;;18.75;67.54297;1003.765;;;;
2019/09/28 13:02:05;;;;;;;1.8;0.9;;;;;;;18.85;67.98828;1003.745;;;;
2019/09/28 13:04:30;;;;;;;2.5;1.1;;;;;;;18.38;69.25684;1003.729;;;;
2019/09/28 13:06:55;;;;;;;2.7;1.1;;;;;;;18.82;68.05469;1003.771;;;;
2019/09/28 13:09:20;;;;;;;2.7;1;;;;;;;18.69;67.99902;1003.768;;;;
2019/09/28 13:11:45;;;;;;;2.7;1;;;;;;;18.68;68.51172;1003.792;;;;
2019/09/28 13:14:11;;;;;;;3.3;1.1;;;;;;;18.64;68.98145;1003.796;;;;
2019/09/28 13:16:36;;;;;;;2.7;1.1;;;;;;;18.87;68.72656;1003.754;;;;
2019/09/28 13:19:01;;;;;;;3.4;1.1;;;;;;;18.96;68.41504;1003.776;;;;
2019/09/28 13:21:26;;;;;;;1.8;1.1;;;;;;;18.88;68.30762;1003.795;;;;
2019/09/28 13:23:51;;;;;;;3.1;0.8;;;;;;;19.06;67.91699;1003.783;;;;
2019/09/28 13:26:16;;;;;;;2.5;1;;;;;;;18.82;68.34668;1003.716;;;;
2019/09/28 13:28:41;;;;;;;4.4;1;;;;;;;18.71;69.13477;1003.771;;;;
2019/09/28 13:31:06;;;;;;;2.9;1.2;;;;;;;18.69;69.43359;1003.777;;;;
2019/09/28 13:33:31;;;;;;;2.2;0.9;;;;;;;18.65;70.11621;1003.698;;;;
2019/09/28 13:35:56;;;;;;;3.2;1.1;;;;;;;18.7;69.72656;1003.726;;;;
2019/09/28 13:38:22;;;;;;;3.4;1.1;;;;;;;18.93;69.25098;1003.702;;;;
2019/09/28 13:40:47;;;;;;;2.3;1;;;;;;;19.06;69.24805;1003.7;;;;
2019/09/28 13:43:12;;;;;;;2.6;1.1;;;;;;;19.29;68.69922;1003.625;;;;
2019/09/28 13:45:37;;;;;;;2.6;1;;;;;;;19.19;68.05371;1003.596;;;;
2019/09/28 13:48:02;;;;;;;2.8;1.1;;;;;;;19.05;68.25293;1003.573;;;;
2019/09/28 13:50:27;;;;;;;3;1.1;;;;;;;19.17;67.78223;1003.642;;;;
2019/09/28 13:52:52;;;;;;;4.2;1.1;;;;;;;19.06;68.39453;1003.603;;;;
2019/09/28 13:55:18;;;;;;;3.3;1;;;;;;;19.08;68.10645;1003.631;;;;
2019/09/28 13:57:43;;;;;;;2.6;1.2;;;;;;;18.96;67.38867;1003.632;;;;
2019/09/28 14:00:08;;;;;;;2;1;;;;;;;18.86;67.76953;1003.596;;;;
2019/09/28 14:02:33;;;;;;;3.9;1.1;;;;;;;19.02;67.29102;1003.578;;;;
2019/09/28 14:04:58;;;;;;;4.3;1.1;;;;;;;19.36;66.79297;1003.606;;;;
2019/09/28 14:07:23;;;;;;;3.1;1.3;;;;;;;19.35;66.58301;1003.518;;;;
2019/09/28 14:09:48;;;;;;;3.4;1.2;;;;;;;18.8;66.93164;1003.466;;;;
2019/09/28 14:12:13;;;;;;;3.6;1.2;;;;;;;18.99;66.85547;1003.578;;;;
2019/09/28 14:14:38;;;;;;;4;1.2;;;;;;;19.33;65.42285;1003.651;;;;
2019/09/28 14:17:03;;;;;;;2.9;1.3;;;;;;;19.3;65.8623;1003.622;;;;
2019/09/28 14:19:28;;;;;;;3.4;1.3;;;;;;;19.46;64.87012;1003.553;;;;
2019/09/28 14:21:53;;;;;;;4.4;1.2;;;;;;;19.35;64.91211;1003.553;;;;